Time;durP1;ratioP1;P1;durP2;ratioP2;P2;SDS_P1;SDS_P2;PMS_P1;PMS_P2;Temp;Humidity;BMP_temperature;BMP_pressure;BME280_temperature;BME280_humidity;BME280_pressure;Samples;Min_cycle;Max_cycle;Signal;HPM_P1;HPM_P2
2021/03/12 00:02:44;;;;;;;1.33;0.30;;;;;;;7.62;68.15;96442.94;10013084;29;20042;-75
2021/03/12 00:08:04;;;;;;;3.25;0.40;;;;;;;7.50;68.41;96466.50;10000183;29;20069;-75
2021/03/12 00:13:25;;;;;;;1.27;0.28;;;;;;;7.39;68.30;96470.72;9999878;29;20405;-75
2021/03/12 00:18:45;;;;;;;3.83;0.20;;;;;;;7.32;68.17;96499.44;10000126;29;20053;-74
2021/03/12 00:24:07;;;;;;;1.30;0.30;;;;;;;7.20;68.67;96488.34;9999655;29;20075;-75
2021/03/12 00:29:27;;;;;;;1.75;0.20;;;;;;;7.07;69.07;96509.09;9999738;29;20073;-75
2021/03/12 00:34:47;;;;;;;0.93;0.10;;;;;;;6.97;68.25;96516.81;10012020;29;20049;-75
2021/03/12 00:40:30;;;;;;;0.40;0.10;;;;;;;6.91;68.21;96518.47;10011734;29;20042;-76
2021/03/12 00:45:59;;;;;;;2.47;0.25;;;;;;;6.82;67.85;96522.78;9986314;29;20050;-75
2021/03/12 00:51:19;;;;;;;0.80;0.30;;;;;;;6.74;67.90;96508.41;9998025;29;20050;-75
2021/03/12 00:56:59;;;;;;;1.33;0.13;;;;;;;6.66;67.25;96500.34;10003874;29;20502;-75
2021/03/12 01:02:19;;;;;;;1.17;0.10;;;;;;;6.58;67.75;96506.09;10010695;29;20506;-75
2021/03/12 01:07:41;;;;;;;1.00;0.17;;;;;;;6.52;67.15;96504.97;9997926;29;20057;-76
2021/03/12 01:13:01;;;;;;;1.52;0.20;;;;;;;6.50;66.91;96513.19;10009895;29;20054;-74
2021/03/12 01:18:21;;;;;;;1.00;0.20;;;;;;;6.48;66.60;96499.91;10010394;29;20415;-74
2021/03/12 01:23:42;;;;;;;1.15;0.20;;;;;;;6.44;66.52;96502.41;10010030;29;20046;-75
2021/03/12 01:29:02;;;;;;;1.88;0.20;;;;;;;6.39;66.66;96500.72;9997361;29;20466;-75
2021/03/12 01:34:40;;;;;;;0.80;0.17;;;;;;;6.31;66.57;96514.78;10009691;29;20054;-76
2021/03/12 01:40:07;;;;;;;2.30;0.17;;;;;;;6.28;66.59;96529.13;10009990;29;20418;-75
2021/03/12 01:45:44;;;;;;;1.50;0.20;;;;;;;6.21;67.52;96530.03;9996960;29;20046;-75
2021/03/12 01:51:06;;;;;;;1.42;0.55;;;;;;;6.15;67.74;96533.13;9995904;29;20054;-75
2021/03/12 01:56:26;;;;;;;1.15;0.20;;;;;;;6.15;67.63;96537.97;10008987;29;20058;-75
2021/03/12 02:01:54;;;;;;;2.35;0.20;;;;;;;6.13;67.32;96546.88;9996696;29;20046;-75
2021/03/12 02:07:38;;;;;;;0.80;0.20;;;;;;;6.11;67.19;96527.34;10021386;29;20068;-75
2021/03/12 02:13:30;;;;;;;2.67;0.28;;;;;;;6.08;67.19;96511.16;9997466;29;20050;-75
2021/03/12 02:19:02;;;;;;;1.63;0.32;;;;;;;6.02;66.66;96512.25;10020907;29;20046;-75
2021/03/12 02:24:43;;;;;;;1.60;0.20;;;;;;;5.99;66.69;96505.13;10020313;29;20050;-75
2021/03/12 02:30:13;;;;;;;2.45;0.20;;;;;;;5.91;67.16;96504.59;9996856;29;20070;-75
2021/03/12 02:35:38;;;;;;;1.92;0.20;;;;;;;5.79;67.18;96525.19;9995654;29;20054;-74
2021/03/12 02:41:08;;;;;;;1.13;0.20;;;;;;;5.66;67.85;96518.13;10007746;29;20428;-75
2021/03/12 02:46:58;;;;;;;0.88;0.20;;;;;;;5.54;67.83;96509.00;10011311;29;20400;-75
2021/03/12 02:52:18;;;;;;;1.13;0.30;;;;;;;5.40;68.56;96537.19;10007390;29;20053;-75
2021/03/12 02:57:39;;;;;;;1.75;0.40;;;;;;;5.27;69.52;96532.16;9994333;29;20426;-76
2021/03/12 03:02:59;;;;;;;0.75;0.30;;;;;;;5.19;70.22;96537.13;9994408;29;20049;-75
2021/03/12 03:08:38;;;;;;;2.13;0.30;;;;;;;5.18;70.63;96532.91;9995632;29;20443;-75
2021/03/12 03:13:57;;;;;;;1.40;0.40;;;;;;;5.22;70.72;96529.69;9994216;29;20054;-75
2021/03/12 03:19:18;;;;;;;1.23;0.30;;;;;;;5.21;71.29;96528.97;9994684;29;20053;-75
2021/03/12 03:24:38;;;;;;;2.13;0.40;;;;;;;5.28;71.33;96541.88;9993711;29;20042;-74
2021/03/12 03:29:59;;;;;;;2.03;0.30;;;;;;;5.49;70.65;96571.66;9994124;29;20050;-75
2021/03/12 03:35:19;;;;;;;2.22;0.43;;;;;;;5.72;69.55;96604.38;10012205;29;20516;-75
2021/03/12 03:40:39;;;;;;;1.65;0.30;;;;;;;5.76;70.14;96629.56;10001246;29;20058;-75
2021/03/12 03:46:03;;;;;;;0.77;0.20;;;;;;;5.52;72.01;96641.75;10000986;29;20119;-75
2021/03/12 03:51:28;;;;;;;1.52;0.20;;;;;;;5.12;73.96;96629.31;10013498;29;20057;-74
2021/03/12 03:56:48;;;;;;;1.10;0.20;;;;;;;4.87;72.90;96660.78;10000658;29;20049;-75
2021/03/12 04:02:09;;;;;;;1.20;0.10;;;;;;;4.66;73.24;96651.63;10013113;29;20054;-75
2021/03/12 04:07:30;;;;;;;0.65;0.10;;;;;;;4.59;73.45;96670.50;10000073;29;20070;-75
2021/03/12 04:12:50;;;;;;;1.13;0.10;;;;;;;4.55;73.18;96681.28;10000077;29;20060;-75
2021/03/12 04:18:12;;;;;;;1.10;0.10;;;;;;;4.57;73.73;96695.25;10000274;29;20114;-75
2021/03/12 04:23:35;;;;;;;2.38;0.17;;;;;;;4.58;73.73;96712.56;9999870;29;20050;-75
2021/03/12 04:28:57;;;;;;;0.57;0.15;;;;;;;4.67;73.99;96709.06;9999957;29;20061;-76
2021/03/12 04:34:19;;;;;;;0.52;0.10;;;;;;;4.63;75.18;96706.00;10012029;29;20510;-75
2021/03/12 04:39:40;;;;;;;0.88;0.10;;;;;;;4.53;74.87;96710.78;9999335;29;20058;-76
2021/03/12 04:45:03;;;;;;;0.47;0.20;;;;;;;4.43;75.90;96707.28;9998360;29;20050;-75
2021/03/12 04:50:25;;;;;;;2.08;0.10;;;;;;;4.20;76.90;96713.91;9998686;29;20053;-76
2021/03/12 04:55:46;;;;;;;0.40;0.15;;;;;;;4.05;76.62;96716.16;10011219;29;20053;-75
2021/03/12 05:01:13;;;;;;;1.88;0.20;;;;;;;4.00;76.13;96728.97;9999667;29;20080;-75
2021/03/12 05:06:33;;;;;;;1.05;0.10;;;;;;;3.98;76.54;96742.63;10010982;29;20057;-74
2021/03/12 05:12:02;;;;;;;0.20;0.10;;;;;;;3.92;76.42;96715.25;9999178;29;20447;-74
2021/03/12 05:17:24;;;;;;;0.50;0.10;;;;;;;3.79;77.25;96742.53;9998163;29;20062;-74
2021/03/12 05:22:45;;;;;;;0.50;0.10;;;;;;;3.76;76.34;96774.75;9997755;29;20048;-74
2021/03/12 05:28:05;;;;;;;0.47;0.08;;;;;;;3.63;76.24;96789.63;10009999;29;20053;-74
2021/03/12 05:33:25;;;;;;;0.55;0.10;;;;;;;3.71;76.42;96808.88;9997504;29;20042;-74
2021/03/12 05:38:47;;;;;;;0.45;0.30;;;;;;;3.85;76.33;96812.00;9997639;29;20046;-75
2021/03/12 05:44:07;;;;;;;0.73;0.20;;;;;;;3.89;75.27;96820.59;10008992;29;20046;-75
2021/03/12 05:49:28;;;;;;;1.15;0.10;;;;;;;3.93;75.30;96837.47;10009413;29;20103;-75
2021/03/12 05:54:48;;;;;;;1.02;0.20;;;;;;;4.02;75.31;96858.91;10008105;29;20050;-74
2021/03/12 06:00:10;;;;;;;0.85;0.10;;;;;;;4.47;74.21;96856.81;10009076;29;20056;-74
2021/03/12 06:05:36;;;;;;;1.10;0.13;;;;;;;4.45;73.74;96860.16;10040560;29;20383;-76
2021/03/12 06:10:56;;;;;;;0.30;0.10;;;;;;;5.73;74.54;96860.56;10010857;29;20058;-76
2021/03/12 06:16:29;;;;;;;0.80;0.10;;;;;;;10.52;67.37;96869.69;10020104;29;20048;-75
2021/03/12 06:21:51;;;;;;;0.98;0.13;;;;;;;13.18;57.86;96875.53;9993835;29;20060;-76
2021/03/12 06:27:28;;;;;;;;;;;;;;;13.77;55.73;96891.34;10000368;29;20106;-75
2021/03/12 06:33:01;;;;;;;1.15;0.30;;;;;;;16.00;52.17;96905.28;10013409;29;19989;-75
2021/03/12 06:38:35;;;;;;;1.35;0.25;;;;;;;16.70;46.35;96930.06;10001599;29;20132;-76
2021/03/12 06:44:25;;;;;;;0.55;0.10;;;;;;;17.87;43.79;96904.47;10001204;29;20042;-76
2021/03/12 06:49:54;;;;;;;3.03;0.30;;;;;;;18.21;38.00;96915.88;10008930;29;20058;-75
2021/03/12 06:55:42;;;;;;;1.58;0.20;;;;;;;15.82;39.44;96951.78;9984702;29;20053;-75
2021/03/12 07:01:18;;;;;;;1.52;0.13;;;;;;;15.69;37.94;96950.66;9983362;29;20488;-75
2021/03/12 07:06:49;;;;;;;1.83;0.22;;;;;;;16.17;37.20;96962.84;9990704;29;20045;-75
2021/03/12 07:12:14;;;;;;;0.85;0.13;;;;;;;19.24;31.95;96969.84;9982655;29;20059;-74
2021/03/12 07:17:40;;;;;;;1.23;0.20;;;;;;;23.76;29.74;96995.56;9995441;29;20060;-75
2021/03/12 07:23:10;;;;;;;1.52;0.40;;;;;;;20.73;26.95;97022.25;9994925;29;20050;-75
2021/03/12 07:28:35;;;;;;;1.05;0.20;;;;;;;19.55;28.82;97017.19;9994071;29;20042;-76
2021/03/12 07:34:33;;;;;;;1.83;0.55;;;;;;;13.59;36.32;97045.50;9996590;29;20082;-75
2021/03/12 07:40:01;;;;;;;1.10;0.28;;;;;;;11.17;43.60;97076.97;9983094;29;20050;-76
2021/03/12 07:45:22;;;;;;;2.22;0.68;;;;;;;11.53;41.29;97063.50;10005812;29;20050;-75
2021/03/12 07:51:09;;;;;;;0.77;0.30;;;;;;;18.80;36.48;97078.44;9989388;29;20118;-75
2021/03/12 07:57:00;;;;;;;1.20;0.30;;;;;;;19.97;29.85;97087.44;10005687;29;20061;-75
2021/03/12 08:03:01;;;;;;;1.90;0.30;;;;;;;27.34;29.25;97068.97;9967082;29;20063;-75
2021/03/12 08:08:46;;;;;;;2.65;0.47;;;;;;;30.60;21.27;97089.81;9999679;29;20057;-75
2021/03/12 08:14:32;;;;;;;2.72;0.70;;;;;;;35.91;16.42;97106.63;10025612;29;20046;-76
2021/03/12 08:20:00;;;;;;;1.35;0.30;;;;;;;39.66;10.90;97109.31;10013746;29;20052;-76
2021/03/12 08:25:47;;;;;;;2.20;0.30;;;;;;;40.73;10.73;97113.06;10029927;29;20049;-76
2021/03/12 08:31:40;;;;;;;1.20;0.30;;;;;;;41.82;7.94;97112.56;10030037;29;20049;-84
2021/03/12 08:37:38;;;;;;;1.75;0.40;;;;;;;41.53;8.41;97099.81;9915472;29;20051;-78
2021/03/12 08:43:24;;;;;;;1.52;0.20;;;;;;;39.64;7.84;97115.28;10040075;29;20057;-81
2021/03/12 08:49:12;;;;;;;2.08;0.30;;;;;;;41.65;6.72;97107.78;10044108;29;20057;-78
2021/03/12 08:54:34;;;;;;;0.90;0.40;;;;;;;42.86;6.73;97115.50;10012415;29;20045;-78
2021/03/12 09:00:09;;;;;;;1.25;0.30;;;;;;;45.43;5.75;97116.25;10024297;29;20049;-77
2021/03/12 09:05:52;;;;;;;3.03;0.20;;;;;;;40.56;5.94;97130.94;10005857;29;20550;-78
2021/03/12 09:11:25;;;;;;;4.32;0.40;;;;;;;43.24;6.04;97137.00;10015253;29;20064;-77
2021/03/12 09:16:59;;;;;;;0.75;0.30;;;;;;;42.17;6.03;97117.44;10023997;29;20049;-79
2021/03/12 09:22:23;;;;;;;1.80;0.30;;;;;;;42.54;5.63;97121.47;10023210;29;20375;-79
2021/03/12 09:28:03;;;;;;;1.38;0.40;;;;;;;41.11;6.23;97135.50;10010732;29;20049;-77
2021/03/12 09:33:30;;;;;;;2.08;0.50;;;;;;;38.86;6.83;97138.69;10023262;29;20050;-78
2021/03/12 09:39:04;;;;;;;3.67;0.30;;;;;;;30.26;10.99;97135.16;10024133;29;20049;-77
2021/03/12 09:44:28;;;;;;;1.63;0.35;;;;;;;36.81;9.85;97143.97;10022406;29;20060;-79
2021/03/12 09:49:59;;;;;;;3.85;0.60;;;;;;;41.80;7.11;97144.94;10024399;29;20098;-78
2021/03/12 09:55:29;;;;;;;2.25;0.52;;;;;;;40.47;5.75;97156.34;10024115;29;20093;-78
2021/03/12 10:00:50;;;;;;;1.98;0.40;;;;;;;27.53;11.40;97150.47;10016386;29;20053;-78
2021/03/12 10:06:11;;;;;;;3.90;0.45;;;;;;;19.91;17.90;97136.19;9989201;29;20486;-78
2021/03/12 10:11:48;;;;;;;2.22;0.50;;;;;;;17.00;23.21;97155.78;10021662;29;20054;-78
2021/03/12 10:17:19;;;;;;;2.92;0.50;;;;;;;17.42;24.95;97151.50;10021857;29;20509;-79
2021/03/12 10:22:43;;;;;;;18.65;1.48;;;;;;;31.68;15.64;97162.25;10021550;29;20057;-78
2021/03/12 10:28:08;;;;;;;8.63;1.08;;;;;;;32.60;11.68;97163.38;10020489;29;20061;-77
2021/03/12 10:33:30;;;;;;;2.30;0.60;;;;;;;28.55;12.71;97163.75;10020440;29;20049;-78
2021/03/12 10:38:50;;;;;;;1.90;0.70;;;;;;;22.95;15.70;97161.53;10032736;29;20557;-78
2021/03/12 10:44:14;;;;;;;2.47;0.70;;;;;;;19.19;19.20;97152.91;10044823;29;20082;-82
2021/03/12 10:49:34;;;;;;;2.25;0.65;;;;;;;20.42;20.69;97148.56;10020664;29;20053;-76
2021/03/12 10:54:54;;;;;;;3.45;0.63;;;;;;;21.23;19.79;97152.16;10019186;29;20041;-75
2021/03/12 11:00:32;;;;;;;1.45;0.60;;;;;;;19.43;20.42;97119.53;10018890;29;20049;-78
2021/03/12 11:05:52;;;;;;;2.40;0.60;;;;;;;16.70;22.78;97116.75;9984505;29;20056;-77
2021/03/12 11:11:14;;;;;;;2.50;0.60;;;;;;;17.52;23.86;97120.06;10006229;29;20112;-77
2021/03/12 11:16:34;;;;;;;2.43;0.37;;;;;;;18.16;23.20;97120.53;10006599;29;20038;-76
2021/03/12 11:21:54;;;;;;;2.33;0.40;;;;;;;17.53;22.84;97115.13;10006124;29;20045;-76
2021/03/12 11:27:15;;;;;;;1.63;0.43;;;;;;;15.87;23.80;97128.59;10018880;29;20060;-75
2021/03/12 11:32:36;;;;;;;2.38;0.40;;;;;;;13.77;26.17;97138.16;10018938;29;20045;-74
2021/03/12 11:37:55;;;;;;;2.72;0.70;;;;;;;12.59;29.76;97142.38;10032499;29;20486;-78
2021/03/12 11:43:16;;;;;;;4.15;0.73;;;;;;;11.45;31.87;97149.69;10006232;29;20052;-77
2021/03/12 11:48:35;;;;;;;7.80;1.10;;;;;;;11.51;30.52;97152.09;10032394;29;20181;-75
2021/03/12 11:53:55;;;;;;;3.42;0.50;;;;;;;11.95;32.68;97148.19;10020778;29;20055;-76
2021/03/12 11:59:16;;;;;;;2.28;0.68;;;;;;;12.38;31.37;97133.59;10013352;29;20042;-77
2021/03/12 12:04:36;;;;;;;2.40;0.40;;;;;;;12.01;31.76;97146.44;9992847;29;20050;-77
2021/03/12 12:09:56;;;;;;;2.47;0.77;;;;;;;12.31;31.72;97141.69;10047956;29;20130;-76
2021/03/12 12:15:17;;;;;;;2.75;0.40;;;;;;;11.70;32.47;97132.91;10037791;29;20482;-77
2021/03/12 12:20:42;;;;;;;2.17;0.40;;;;;;;11.10;33.58;97128.25;10038864;29;20041;-78
2021/03/12 12:26:02;;;;;;;4.18;0.57;;;;;;;11.14;33.18;97111.72;10038738;29;20052;-79
2021/03/12 12:31:22;;;;;;;3.40;0.57;;;;;;;11.17;33.67;97116.06;10025706;29;20056;-79
2021/03/12 12:36:41;;;;;;;3.20;0.50;;;;;;;11.37;33.56;97112.94;10024817;29;20049;-78
2021/03/12 12:42:01;;;;;;;5.07;0.50;;;;;;;11.50;32.84;97112.25;10028609;29;20041;-79
2021/03/12 12:47:21;;;;;;;2.50;0.68;;;;;;;11.45;33.49;97096.59;10011719;29;20053;-78
2021/03/12 12:52:40;;;;;;;2.72;0.50;;;;;;;11.40;33.39;97103.34;10016187;29;20045;-79
2021/03/12 12:58:00;;;;;;;1.58;0.40;;;;;;;11.36;33.22;97103.81;10026235;29;20041;-78
2021/03/12 13:03:21;;;;;;;2.53;0.40;;;;;;;11.57;33.29;97104.91;10001242;29;20102;-78
2021/03/12 13:08:41;;;;;;;4.47;0.60;;;;;;;12.29;32.80;97094.00;10366306;23;20177;-79
2021/03/12 13:14:00;;;;;;;3.05;0.60;;;;;;;12.90;32.38;97094.19;10011157;29;20052;-78
2021/03/12 13:19:21;;;;;;;2.78;0.80;;;;;;;12.45;32.22;97098.97;10025432;29;20434;-78
2021/03/12 13:24:42;;;;;;;3.50;0.70;;;;;;;11.86;33.14;97079.19;10029449;29;20101;-79
2021/03/12 13:30:02;;;;;;;1.90;0.60;;;;;;;12.24;32.90;97081.16;10233864;23;20017;-79
2021/03/12 13:35:22;;;;;;;3.55;0.70;;;;;;;12.72;32.29;97081.38;9977838;29;20061;-75
2021/03/12 13:40:43;;;;;;;1.45;0.45;;;;;;;13.24;31.84;97069.19;9946161;29;20050;-75
2021/03/12 13:46:02;;;;;;;3.20;0.40;;;;;;;13.04;31.25;97068.22;9972135;29;20061;-75
2021/03/12 13:51:22;;;;;;;3.97;0.40;;;;;;;12.87;31.18;97053.44;9968959;29;20043;-76
2021/03/12 13:56:43;;;;;;;1.90;0.40;;;;;;;12.47;31.40;97066.22;9942536;29;20042;-79
2021/03/12 14:02:04;;;;;;;1.48;0.40;;;;;;;12.48;31.59;97072.53;9955484;29;20050;-77
2021/03/12 14:07:24;;;;;;;2.40;0.50;;;;;;;12.10;32.05;97068.53;9946440;29;20380;-79
2021/03/12 14:12:44;;;;;;;3.15;0.50;;;;;;;11.51;32.40;97063.41;9961878;29;20053;-79
2021/03/12 14:18:22;;;;;;;1.80;0.30;;;;;;;11.52;32.48;97059.25;9984154;29;20058;-79
2021/03/12 14:23:42;;;;;;;2.65;0.40;;;;;;;11.43;33.00;97046.19;9971905;29;20047;-79
2021/03/12 14:29:05;;;;;;;2.88;0.77;;;;;;;11.45;32.74;97049.81;9984388;29;20054;-78
2021/03/12 14:34:25;;;;;;;2.72;0.70;;;;;;;11.24;33.42;97052.88;9971267;29;20062;-78
2021/03/12 14:39:45;;;;;;;4.53;0.73;;;;;;;10.91;33.45;97044.81;9958348;29;20129;-78
2021/03/12 14:45:06;;;;;;;4.15;1.00;;;;;;;10.92;34.15;97043.47;9958448;29;20053;-79
2021/03/12 14:50:44;;;;;;;3.47;0.80;;;;;;;11.19;34.34;97040.03;9963509;29;20100;-78
2021/03/12 14:56:05;;;;;;;3.25;0.63;;;;;;;11.32;33.73;97030.97;9945841;29;20449;-77
2021/03/12 15:01:28;;;;;;;5.40;0.60;;;;;;;11.47;34.06;97035.22;9976520;29;20046;-79
2021/03/12 15:06:48;;;;;;;2.63;0.50;;;;;;;11.86;33.28;97037.25;9973046;29;20042;-80
2021/03/12 15:12:09;;;;;;;2.63;0.70;;;;;;;11.88;33.37;97026.19;9958558;29;20471;-76
2021/03/12 15:17:30;;;;;;;1.17;0.30;;;;;;;11.84;32.61;97025.97;10443570;23;20053;-84
2021/03/12 15:22:50;;;;;;;1.75;0.40;;;;;;;11.34;32.42;97021.97;9932701;29;20137;-79
2021/03/12 15:28:10;;;;;;;1.80;0.40;;;;;;;10.81;33.03;97016.34;9932894;29;20415;-76
2021/03/12 15:33:33;;;;;;;2.72;0.40;;;;;;;10.40;33.04;97007.78;9939830;29;20047;-78
2021/03/12 15:38:53;;;;;;;1.80;0.35;;;;;;;10.48;33.50;96999.88;9964548;29;20058;-76
2021/03/12 15:44:13;;;;;;;2.15;0.60;;;;;;;10.45;33.30;97007.41;9964273;29;20047;-78
2021/03/12 15:49:33;;;;;;;1.77;0.57;;;;;;;10.37;33.65;97004.16;9952347;29;20475;-78
2021/03/12 15:55:08;;;;;;;2.88;0.70;;;;;;;10.20;34.61;96999.69;9962407;29;20096;-80
2021/03/12 16:06:50;;;;;;;1.85;0.50;;;;;;;10.08;34.64;97006.63;10027450;29;20064;-79
2021/03/12 16:12:11;;;;;;;3.45;0.77;;;;;;;9.71;34.44;96996.88;10017981;29;20501;-80
2021/03/12 16:17:57;;;;;;;7.10;0.50;;;;;;;9.33;35.35;96997.38;10264133;23;20068;-79
2021/03/12 16:23:40;;;;;;;5.30;0.70;;;;;;;9.10;35.30;96998.09;10019513;29;20062;-76
2021/03/12 16:29:22;;;;;;;3.55;0.70;;;;;;;8.84;36.67;96994.41;10043258;29;20061;-78
2021/03/12 16:34:42;;;;;;;1.90;0.60;;;;;;;8.62;37.55;96993.75;10004459;29;20057;-80
2021/03/12 16:40:19;;;;;;;1.77;0.40;;;;;;;8.42;37.16;96984.13;10072769;24;20071;-82
2021/03/12 16:45:40;;;;;;;3.08;0.60;;;;;;;8.23;38.07;96985.72;10063139;29;20466;-79
2021/03/12 16:50:59;;;;;;;3.83;0.95;;;;;;;8.01;37.79;96982.25;10026566;29;20057;-78
2021/03/12 16:56:19;;;;;;;2.58;0.80;;;;;;;7.79;38.64;96977.25;10011931;29;20057;-79
2021/03/12 17:01:39;;;;;;;3.33;0.70;;;;;;;7.60;40.14;96978.84;10023768;29;20489;-78
2021/03/12 17:07:00;;;;;;;5.15;0.60;;;;;;;7.40;39.70;96983.03;9986521;29;20050;-80
2021/03/12 17:12:19;;;;;;;3.20;0.60;;;;;;;7.26;40.42;96995.97;10000935;29;20054;-79
2021/03/12 17:17:41;;;;;;;2.05;0.52;;;;;;;7.15;40.60;96986.22;9998911;29;20049;-80
2021/03/12 17:23:01;;;;;;;2.63;0.73;;;;;;;7.02;40.25;96995.03;10026788;29;20046;-78
2021/03/12 17:28:21;;;;;;;5.68;0.90;;;;;;;6.89;41.50;96990.69;10034203;29;20062;-79
2021/03/12 17:33:41;;;;;;;3.72;0.90;;;;;;;6.78;40.61;96988.53;10010953;29;20124;-78
2021/03/12 17:39:03;;;;;;;6.03;1.00;;;;;;;6.71;41.35;96987.38;10004912;29;20057;-81
2021/03/12 17:44:23;;;;;;;3.90;1.02;;;;;;;6.63;42.27;96994.38;10343007;24;20076;-79
2021/03/12 17:49:42;;;;;;;5.07;1.35;;;;;;;6.56;42.89;96991.22;9997277;29;20115;-79
2021/03/12 17:55:02;;;;;;;2.70;0.90;;;;;;;6.49;42.47;96983.75;10001588;29;20447;-80
2021/03/12 18:00:23;;;;;;;2.90;0.70;;;;;;;6.41;43.28;96982.47;9988345;29;20053;-78
2021/03/12 18:05:43;;;;;;;3.17;0.70;;;;;;;6.37;43.67;96991.22;10001558;29;20033;-79
2021/03/12 18:11:04;;;;;;;2.92;0.50;;;;;;;6.33;44.79;96999.25;10020979;29;20030;-81
2021/03/12 18:16:24;;;;;;;5.15;0.95;;;;;;;6.27;44.72;96996.03;10098374;24;20056;-81
2021/03/12 18:21:45;;;;;;;4.05;1.20;;;;;;;6.23;44.20;97004.06;10193595;24;20061;-81
2021/03/12 18:27:08;;;;;;;7.75;2.13;;;;;;;6.16;45.25;96996.59;10652178;23;20116;-79
2021/03/12 18:32:29;;;;;;;7.78;2.65;;;;;;;6.08;44.16;97009.88;10038541;29;20072;-79
2021/03/12 18:37:49;;;;;;;10.90;3.50;;;;;;;6.00;44.88;97002.44;10057511;29;20041;-78
2021/03/12 18:43:09;;;;;;;8.25;2.75;;;;;;;5.97;44.90;97009.13;10038427;29;20053;-79
2021/03/12 18:48:29;;;;;;;9.63;4.03;;;;;;;5.90;45.42;96998.19;10020613;29;20109;-78
2021/03/12 18:53:49;;;;;;;11.45;4.30;;;;;;;5.79;46.26;96993.94;10050177;29;20069;-81
2021/03/12 18:59:09;;;;;;;9.93;3.53;;;;;;;5.67;45.83;96991.00;10060033;29;20532;-79
2021/03/12 19:04:29;;;;;;;6.50;3.50;;;;;;;5.63;46.12;96976.13;10043124;29;20060;-83
2021/03/12 19:09:49;;;;;;;6.35;2.33;;;;;;;5.57;46.13;96970.88;10014857;29;20046;-76
2021/03/12 19:15:19;;;;;;;7.85;2.40;;;;;;;5.47;48.38;96968.06;10019359;29;20057;-77
2021/03/12 19:20:38;;;;;;;7.93;2.42;;;;;;;5.39;46.82;96975.78;10019857;29;20054;-76
2021/03/12 19:25:58;;;;;;;6.53;2.50;;;;;;;5.34;46.50;96976.78;10032042;29;20052;-75
2021/03/12 19:31:18;;;;;;;7.85;2.33;;;;;;;5.30;47.28;96976.47;10018739;29;20057;-75
2021/03/12 19:36:39;;;;;;;5.00;2.35;;;;;;;5.24;48.40;96978.78;10044754;29;20409;-75
2021/03/12 19:42:00;;;;;;;5.68;2.42;;;;;;;5.16;48.75;96972.66;10031927;29;20505;-75
2021/03/12 19:47:20;;;;;;;4.65;2.10;;;;;;;5.14;49.74;96978.03;10019698;29;20069;-75
2021/03/12 19:52:40;;;;;;;4.10;2.03;;;;;;;5.07;49.86;96970.56;10005957;29;20049;-75
2021/03/12 19:58:00;;;;;;;4.45;2.10;;;;;;;5.00;49.57;96963.09;10005948;29;20053;-75
2021/03/12 20:03:19;;;;;;;5.30;2.08;;;;;;;4.94;49.57;96952.34;10056996;29;20050;-76
2021/03/12 20:08:39;;;;;;;8.52;1.95;;;;;;;4.88;50.47;96949.09;10031160;29;20090;-73
2021/03/12 20:14:02;;;;;;;5.30;2.00;;;;;;;4.79;50.26;96955.31;10018886;29;20050;-78
2021/03/12 20:19:21;;;;;;;3.55;1.70;;;;;;;4.74;52.40;96956.31;10012733;29;20045;-76
2021/03/12 20:24:42;;;;;;;5.07;2.00;;;;;;;4.67;51.26;96954.38;10012839;29;20041;-76
2021/03/12 20:30:03;;;;;;;3.88;1.92;;;;;;;4.62;52.42;96953.31;10013367;29;20060;-74
2021/03/12 20:35:22;;;;;;;5.97;1.83;;;;;;;4.61;51.98;96949.09;10024976;29;20053;-76
2021/03/12 20:40:42;;;;;;;5.32;1.55;;;;;;;4.60;52.07;96947.66;10050166;29;20385;-76
2021/03/12 20:46:02;;;;;;;4.18;1.40;;;;;;;4.58;52.49;96941.97;10037241;29;20046;-78
2021/03/12 20:51:22;;;;;;;6.10;1.58;;;;;;;4.54;53.62;96941.66;10011693;29;20045;-75
2021/03/12 20:56:44;;;;;;;5.10;1.60;;;;;;;4.50;53.33;96939.31;10011705;29;20057;-79
2021/03/12 21:02:03;;;;;;;4.60;1.63;;;;;;;4.45;53.60;96939.56;10013278;29;20046;-79
2021/03/12 21:07:23;;;;;;;5.72;1.83;;;;;;;4.42;53.75;96940.69;10044387;29;20060;-78
2021/03/12 21:12:43;;;;;;;5.05;2.20;;;;;;;4.41;54.18;96936.47;10041580;29;20053;-79
2021/03/12 21:18:03;;;;;;;7.22;2.53;;;;;;;4.42;54.68;96916.56;10062752;29;20049;-82
2021/03/12 21:23:24;;;;;;;6.90;2.90;;;;;;;4.38;53.15;96912.75;10027102;29;20053;-79
2021/03/12 21:28:44;;;;;;;5.43;2.38;;;;;;;4.36;54.00;96915.38;10010066;29;20086;-77
2021/03/12 21:34:04;;;;;;;7.10;3.20;;;;;;;4.34;54.44;96918.69;10035849;29;20050;-78
2021/03/12 21:39:25;;;;;;;7.28;2.80;;;;;;;4.32;54.57;96910.25;10049351;29;20049;-81
2021/03/12 21:44:45;;;;;;;7.82;2.90;;;;;;;4.34;54.37;96904.16;10036732;29;20061;-82
2021/03/12 21:50:07;;;;;;;4.70;2.08;;;;;;;4.42;55.07;96905.50;10049984;29;20078;-82
2021/03/12 21:55:27;;;;;;;10.45;4.72;;;;;;;4.42;55.39;96880.63;10035820;29;20056;-82
2021/03/12 22:00:47;;;;;;;9.25;3.83;;;;;;;4.37;54.78;96878.88;10037284;29;20052;-82
2021/03/12 22:06:07;;;;;;;6.40;3.13;;;;;;;4.35;54.18;96875.97;10036055;29;20056;-81
2021/03/12 22:11:27;;;;;;;5.68;2.45;;;;;;;4.32;54.50;96877.81;10048883;29;20042;-81
2021/03/12 22:16:50;;;;;;;6.70;2.30;;;;;;;4.33;54.30;96873.03;10062754;29;20074;-81
2021/03/12 22:22:10;;;;;;;6.30;2.10;;;;;;;4.36;54.88;96876.69;10048474;29;20053;-82
2021/03/12 22:27:30;;;;;;;6.05;2.10;;;;;;;4.47;54.50;96862.34;10047041;29;20053;-82
2021/03/12 22:32:50;;;;;;;4.72;2.10;;;;;;;4.61;54.00;96849.59;10049594;29;20486;-81
2021/03/12 22:38:11;;;;;;;5.10;1.60;;;;;;;4.69;53.99;96847.44;10039019;29;20101;-81
2021/03/12 22:43:31;;;;;;;4.93;1.77;;;;;;;4.76;54.51;96832.78;10051759;29;20045;-82
2021/03/12 22:48:51;;;;;;;5.45;1.90;;;;;;;4.80;53.95;96829.56;10051244;29;20046;-82
2021/03/12 22:54:11;;;;;;;3.58;1.33;;;;;;;4.81;54.01;96829.00;10051838;29;20052;-81
2021/03/12 22:59:31;;;;;;;5.13;1.45;;;;;;;4.82;53.89;96807.59;10051673;29;20056;-81
2021/03/12 23:04:50;;;;;;;3.92;1.30;;;;;;;4.82;54.11;96805.56;10039127;29;20513;-82
2021/03/12 23:10:21;;;;;;;3.78;1.60;;;;;;;4.81;54.11;96790.28;10039227;29;20110;-81
2021/03/12 23:15:41;;;;;;;5.85;1.27;;;;;;;4.83;54.19;96781.44;10039810;29;20120;-82
2021/03/12 23:21:02;;;;;;;3.53;1.42;;;;;;;4.78;54.14;96780.38;10066173;29;20053;-82
2021/03/12 23:26:23;;;;;;;5.35;1.60;;;;;;;4.71;54.33;96774.97;10064794;29;20045;-81
2021/03/12 23:31:44;;;;;;;2.20;1.13;;;;;;;4.66;54.37;96773.97;10039464;29;20066;-81
2021/03/12 23:37:04;;;;;;;4.78;1.45;;;;;;;4.65;54.44;96783.56;10037829;29;20045;-81
2021/03/12 23:42:23;;;;;;;4.90;1.23;;;;;;;4.67;54.37;96774.69;10064241;29;20049;-82
2021/03/12 23:47:43;;;;;;;3.03;1.02;;;;;;;4.68;54.66;96771.34;10038522;29;20054;-82
2021/03/12 23:53:03;;;;;;;4.50;1.30;;;;;;;4.69;54.54;96767.28;10045261;29;20045;-82
2021/03/12 23:58:23;;;;;;;6.38;1.55;;;;;;;4.65;54.58;96761.47;10045775;29;20049;-82
